AMX28Y MMMX-MMVA
Flight info
| Callsign | AMX28Y |
|---|---|
| Flight time | 1h 3m |
| Altitude | 35000 |
| Route | NOXOS3A NOXOS UT155 AVALI UT61 VER UJ12 VSA |
| Aircraft | B738/M-SDE2E3FGHIRWXY/LB1 |
Departure
| Time | 2026-05-06 21:42 |
|---|---|
| Airport | Mexico City Benito Juárez International Airport (MMMX) |
Arrival
| Time | 2026-05-06 22:45 |
|---|---|
| Airport | Carlos Rovirosa Pérez International Airport (MMVA) |
| Time | Latitude | Longitude | Altitude | Speed | Heading |
|---|---|---|---|---|---|
| 2026-05-06 21:21 | 19.43319 | -99.08473 | 7359 ft | 0 kts | 331° |
| 2026-05-06 21:34 | 19.43316 | -99.08472 | 7359 ft | 2 kts | 331° |
| 2026-05-06 21:35 | 19.43304 | -99.08464 | 7358 ft | 2 kts | 330° |
| 2026-05-06 21:35 | 19.43291 | -99.08456 | 7358 ft | 2 kts | 331° |
| 2026-05-06 21:35 | 19.43277 | -99.08449 | 7357 ft | 2 kts | 330° |
| 2026-05-06 21:35 | 19.43269 | -99.08443 | 7357 ft | 1 kts | 331° |
| 2026-05-06 21:36 | 19.43257 | -99.08433 | 7356 ft | 2 kts | 300° |
| 2026-05-06 21:36 | 19.43252 | -99.08418 | 7356 ft | 2 kts | 274° |
| 2026-05-06 21:36 | 19.43254 | -99.08403 | 7356 ft | 1 kts | 247° |
| 2026-05-06 21:36 | 19.43257 | -99.08397 | 7356 ft | 1 kts | 237° |
| 2026-05-06 21:37 | 19.43259 | -99.08394 | 7356 ft | 0 kts | 240° |
| 2026-05-06 21:38 | 19.43259 | -99.08395 | 7356 ft | 0 kts | 240° |
| 2026-05-06 21:38 | 19.43254 | -99.08402 | 7356 ft | 2 kts | 240° |
| 2026-05-06 21:38 | 19.43230 | -99.08447 | 7356 ft | 11 kts | 240° |
| 2026-05-06 21:39 | 19.43190 | -99.08518 | 7355 ft | 10 kts | 239° |
| 2026-05-06 21:39 | 19.43154 | -99.08582 | 7354 ft | 10 kts | 239° |
| 2026-05-06 21:39 | 19.43119 | -99.08646 | 7354 ft | 9 kts | 240° |
| 2026-05-06 21:39 | 19.43084 | -99.08703 | 7354 ft | 8 kts | 230° |
| 2026-05-06 21:40 | 19.43032 | -99.08723 | 7353 ft | 8 kts | 169° |
| 2026-05-06 21:40 | 19.42981 | -99.08713 | 7353 ft | 6 kts | 171° |
| 2026-05-06 21:40 | 19.42917 | -99.08697 | 7352 ft | 12 kts | 159° |
| 2026-05-06 21:40 | 19.42827 | -99.08646 | 7351 ft | 17 kts | 148° |
| 2026-05-06 21:41 | 19.42733 | -99.08565 | 7351 ft | 16 kts | 106° |
| 2026-05-06 21:41 | 19.42771 | -99.08453 | 7352 ft | 23 kts | 59° |
| 2026-05-06 21:41 | 19.42979 | -99.08088 | 7353 ft | 89 kts | 59° |
| 2026-05-06 21:41 | 19.43407 | -99.07329 | 7346 ft | 146 kts | 59° |
| 2026-05-06 21:42 | 19.44010 | -99.06256 | 7342 ft | 192 kts | 61° |
| 2026-05-06 21:42 | 19.44689 | -99.05054 | 8037 ft | 187 kts | 61° |
| 2026-05-06 21:42 | 19.45334 | -99.03912 | 8732 ft | 187 kts | 60° |
| 2026-05-06 21:42 | 19.46074 | -99.02697 | 9103 ft | 204 kts | 58° |
| 2026-05-06 21:43 | 19.46909 | -99.01450 | 9549 ft | 212 kts | 56° |
| 2026-05-06 21:43 | 19.47809 | -99.00091 | 9708 ft | 237 kts | 59° |
| 2026-05-06 21:43 | 19.48692 | -98.98582 | 10187 ft | 247 kts | 60° |
| 2026-05-06 21:43 | 19.49606 | -98.96976 | 10515 ft | 266 kts | 60° |
| 2026-05-06 21:44 | 19.50575 | -98.95247 | 10935 ft | 280 kts | 60° |
| 2026-05-06 21:44 | 19.51594 | -98.93416 | 11377 ft | 294 kts | 60° |
| 2026-05-06 21:44 | 19.52647 | -98.91528 | 11991 ft | 301 kts | 60° |
| 2026-05-06 21:44 | 19.53557 | -98.89559 | 12692 ft | 303 kts | 70° |
| 2026-05-06 21:45 | 19.54212 | -98.87416 | 13406 ft | 305 kts | 75° |
| 2026-05-06 21:45 | 19.54697 | -98.85213 | 14031 ft | 311 kts | 84° |
| 2026-05-06 21:45 | 19.54621 | -98.82889 | 14448 ft | 324 kts | 98° |
| 2026-05-06 21:45 | 19.54164 | -98.80489 | 14799 ft | 340 kts | 103° |
| 2026-05-06 21:46 | 19.53618 | -98.78009 | 15211 ft | 352 kts | 103° |
| 2026-05-06 21:46 | 19.53081 | -98.75429 | 15526 ft | 368 kts | 102° |
| 2026-05-06 21:46 | 19.52568 | -98.72730 | 16061 ft | 374 kts | 101° |
| 2026-05-06 21:46 | 19.52088 | -98.70019 | 16678 ft | 377 kts | 100° |
| 2026-05-06 21:47 | 19.51624 | -98.67287 | 17368 ft | 379 kts | 100° |
| 2026-05-06 21:47 | 19.51168 | -98.64556 | 17981 ft | 382 kts | 101° |
| 2026-05-06 21:47 | 19.50705 | -98.61770 | 18512 ft | 387 kts | 101° |
| 2026-05-06 21:47 | 19.50234 | -98.58944 | 19091 ft | 390 kts | 101° |
| 2026-05-06 21:48 | 19.49761 | -98.56112 | 19649 ft | 394 kts | 101° |
| 2026-05-06 21:48 | 19.49281 | -98.53259 | 20179 ft | 399 kts | 101° |
| 2026-05-06 21:48 | 19.48790 | -98.50348 | 20731 ft | 403 kts | 101° |
| 2026-05-06 21:48 | 19.48295 | -98.47414 | 21271 ft | 407 kts | 101° |
| 2026-05-06 21:49 | 19.47799 | -98.44481 | 21818 ft | 410 kts | 101° |
| 2026-05-06 21:49 | 19.47297 | -98.41515 | 22386 ft | 413 kts | 101° |
| 2026-05-06 21:49 | 19.46788 | -98.38512 | 22860 ft | 418 kts | 101° |
| 2026-05-06 21:49 | 19.46274 | -98.35481 | 23383 ft | 421 kts | 101° |
| 2026-05-06 21:50 | 19.45752 | -98.32401 | 23866 ft | 426 kts | 102° |
| 2026-05-06 21:50 | 19.45222 | -98.29286 | 24305 ft | 431 kts | 102° |
| 2026-05-06 21:50 | 19.44694 | -98.26174 | 24777 ft | 434 kts | 102° |
| 2026-05-06 21:50 | 19.44157 | -98.23020 | 25225 ft | 438 kts | 102° |
| 2026-05-06 21:51 | 19.43616 | -98.19846 | 25674 ft | 442 kts | 102° |
| 2026-05-06 21:51 | 19.43069 | -98.16636 | 26092 ft | 446 kts | 102° |
| 2026-05-06 21:51 | 19.42515 | -98.13394 | 26506 ft | 450 kts | 102° |
| 2026-05-06 21:51 | 19.41955 | -98.10113 | 26941 ft | 453 kts | 102° |
| 2026-05-06 21:52 | 19.41392 | -98.06827 | 27353 ft | 457 kts | 102° |
| 2026-05-06 21:52 | 19.40828 | -98.03535 | 27719 ft | 461 kts | 102° |
| 2026-05-06 21:52 | 19.40258 | -98.00210 | 28148 ft | 463 kts | 102° |
| 2026-05-06 21:52 | 19.39676 | -97.96818 | 28506 ft | 467 kts | 102° |
| 2026-05-06 21:53 | 19.39094 | -97.93430 | 28925 ft | 470 kts | 102° |
| 2026-05-06 21:53 | 19.38514 | -97.90056 | 29329 ft | 473 kts | 102° |
| 2026-05-06 21:53 | 19.37918 | -97.86601 | 29762 ft | 475 kts | 102° |
| 2026-05-06 21:53 | 19.37331 | -97.83194 | 30117 ft | 478 kts | 102° |
| 2026-05-06 21:54 | 19.36731 | -97.79719 | 30722 ft | 475 kts | 102° |
| 2026-05-06 21:54 | 19.36143 | -97.76314 | 31489 ft | 469 kts | 101° |
| 2026-05-06 21:54 | 19.35566 | -97.72975 | 32154 ft | 464 kts | 101° |
| 2026-05-06 21:54 | 19.34986 | -97.69618 | 32742 ft | 461 kts | 101° |
| 2026-05-06 21:55 | 19.34407 | -97.66273 | 33244 ft | 460 kts | 101° |
| 2026-05-06 21:55 | 19.33828 | -97.62936 | 33664 ft | 461 kts | 101° |
| 2026-05-06 21:55 | 19.33251 | -97.59615 | 34082 ft | 461 kts | 101° |
| 2026-05-06 21:55 | 19.32671 | -97.56280 | 34513 ft | 461 kts | 101° |
| 2026-05-06 21:56 | 19.32097 | -97.52984 | 34962 ft | 460 kts | 101° |
| 2026-05-06 21:56 | 19.31513 | -97.49638 | 35382 ft | 459 kts | 101° |
| 2026-05-06 21:56 | 19.30342 | -97.42934 | 35423 ft | 461 kts | 101° |
| 2026-05-06 21:57 | 19.29172 | -97.36264 | 35447 ft | 459 kts | 101° |
| 2026-05-06 21:57 | 19.28010 | -97.29645 | 35463 ft | 459 kts | 101° |
| 2026-05-06 21:58 | 19.26843 | -97.23007 | 35466 ft | 459 kts | 101° |
| 2026-05-06 21:58 | 19.25675 | -97.16383 | 35369 ft | 458 kts | 101° |
| 2026-05-06 21:59 | 19.24507 | -97.09775 | 35294 ft | 457 kts | 101° |
| 2026-05-06 21:59 | 19.23332 | -97.03143 | 35170 ft | 457 kts | 101° |
| 2026-05-06 22:00 | 19.22158 | -96.96523 | 35095 ft | 459 kts | 101° |
| 2026-05-06 22:00 | 19.20979 | -96.89887 | 35046 ft | 460 kts | 101° |
| 2026-05-06 22:01 | 19.19800 | -96.83257 | 35001 ft | 459 kts | 101° |
| 2026-05-06 22:01 | 19.18623 | -96.76658 | 34977 ft | 457 kts | 101° |
| 2026-05-06 22:02 | 19.17441 | -96.70049 | 34924 ft | 458 kts | 101° |
| 2026-05-06 22:02 | 19.16259 | -96.63454 | 34905 ft | 457 kts | 101° |
| 2026-05-06 22:03 | 19.15071 | -96.56842 | 34852 ft | 458 kts | 101° |
| 2026-05-06 22:03 | 19.13876 | -96.50220 | 34818 ft | 459 kts | 101° |
| 2026-05-06 22:04 | 19.12680 | -96.43584 | 34790 ft | 458 kts | 101° |
| 2026-05-06 22:04 | 19.11490 | -96.37001 | 34789 ft | 457 kts | 101° |
| 2026-05-06 22:05 | 19.10287 | -96.30361 | 34768 ft | 457 kts | 102° |
| 2026-05-06 22:05 | 19.09093 | -96.23794 | 34754 ft | 457 kts | 102° |
| 2026-05-06 22:06 | 19.07893 | -96.17192 | 34737 ft | 457 kts | 102° |
| 2026-05-06 22:06 | 19.06698 | -96.10632 | 34731 ft | 457 kts | 102° |
| 2026-05-06 22:07 | 19.05490 | -96.04013 | 34720 ft | 458 kts | 102° |
| 2026-05-06 22:07 | 19.04289 | -95.97447 | 34708 ft | 457 kts | 102° |
| 2026-05-06 22:08 | 19.03085 | -95.90880 | 34708 ft | 458 kts | 102° |
| 2026-05-06 22:08 | 19.01872 | -95.84280 | 34705 ft | 457 kts | 102° |
| 2026-05-06 22:09 | 19.00615 | -95.77691 | 34707 ft | 457 kts | 104° |
| 2026-05-06 22:09 | 18.98807 | -95.71261 | 34705 ft | 456 kts | 110° |
| 2026-05-06 22:10 | 18.96684 | -95.64982 | 34709 ft | 457 kts | 111° |
| 2026-05-06 22:10 | 18.94494 | -95.58647 | 34707 ft | 457 kts | 111° |
| 2026-05-06 22:11 | 18.92354 | -95.52379 | 34704 ft | 456 kts | 110° |
| 2026-05-06 22:11 | 18.90215 | -95.46036 | 34710 ft | 457 kts | 110° |
| 2026-05-06 22:12 | 18.88096 | -95.39710 | 34708 ft | 457 kts | 110° |
| 2026-05-06 22:12 | 18.85981 | -95.33384 | 34708 ft | 456 kts | 110° |
| 2026-05-06 22:13 | 18.83873 | -95.27078 | 34710 ft | 456 kts | 110° |
| 2026-05-06 22:13 | 18.81759 | -95.20757 | 34711 ft | 456 kts | 110° |
| 2026-05-06 22:14 | 18.79641 | -95.14436 | 34714 ft | 457 kts | 110° |
| 2026-05-06 22:14 | 18.77531 | -95.08146 | 34717 ft | 457 kts | 110° |
| 2026-05-06 22:15 | 18.75402 | -95.01809 | 34719 ft | 457 kts | 110° |
| 2026-05-06 22:15 | 18.73298 | -94.95550 | 34719 ft | 456 kts | 110° |
| 2026-05-06 22:16 | 18.71172 | -94.89235 | 34718 ft | 456 kts | 110° |
| 2026-05-06 22:16 | 18.69056 | -94.82954 | 34722 ft | 456 kts | 110° |
| 2026-05-06 22:17 | 18.66924 | -94.76636 | 34729 ft | 456 kts | 110° |
| 2026-05-06 22:17 | 18.64805 | -94.70365 | 34734 ft | 456 kts | 110° |
| 2026-05-06 22:18 | 18.62671 | -94.64059 | 34736 ft | 457 kts | 110° |
| 2026-05-06 22:18 | 18.60533 | -94.57745 | 34736 ft | 457 kts | 110° |
| 2026-05-06 22:19 | 18.58397 | -94.51447 | 34730 ft | 456 kts | 110° |
| 2026-05-06 22:19 | 18.56262 | -94.45161 | 34733 ft | 456 kts | 110° |
| 2026-05-06 22:20 | 18.54124 | -94.38870 | 34735 ft | 456 kts | 110° |
| 2026-05-06 22:20 | 18.51979 | -94.32571 | 34212 ft | 449 kts | 110° |
| 2026-05-06 22:21 | 18.50928 | -94.29488 | 33646 ft | 445 kts | 110° |
| 2026-05-06 22:21 | 18.49890 | -94.26443 | 32972 ft | 444 kts | 110° |
| 2026-05-06 22:21 | 18.48851 | -94.23397 | 32276 ft | 443 kts | 110° |
| 2026-05-06 22:21 | 18.47818 | -94.20368 | 31536 ft | 444 kts | 110° |
| 2026-05-06 22:22 | 18.46773 | -94.17310 | 30896 ft | 442 kts | 111° |
| 2026-05-06 22:22 | 18.45738 | -94.14278 | 30385 ft | 437 kts | 111° |
| 2026-05-06 22:22 | 18.44720 | -94.11297 | 29859 ft | 432 kts | 111° |
| 2026-05-06 22:22 | 18.43715 | -94.08356 | 29337 ft | 428 kts | 111° |
| 2026-05-06 22:23 | 18.42707 | -94.05409 | 28808 ft | 424 kts | 111° |
| 2026-05-06 22:23 | 18.41723 | -94.02536 | 28311 ft | 419 kts | 111° |
| 2026-05-06 22:23 | 18.40735 | -93.99653 | 27796 ft | 416 kts | 111° |
| 2026-05-06 22:23 | 18.39764 | -93.96821 | 27295 ft | 412 kts | 111° |
| 2026-05-06 22:24 | 18.38800 | -93.94016 | 26793 ft | 408 kts | 111° |
| 2026-05-06 22:24 | 18.37837 | -93.91213 | 26271 ft | 405 kts | 111° |
| 2026-05-06 22:24 | 18.36888 | -93.88452 | 25756 ft | 402 kts | 110° |
| 2026-05-06 22:24 | 18.35949 | -93.85720 | 25244 ft | 398 kts | 110° |
| 2026-05-06 22:25 | 18.35012 | -93.82998 | 24742 ft | 395 kts | 110° |
| 2026-05-06 22:25 | 18.34072 | -93.80267 | 24206 ft | 392 kts | 110° |
| 2026-05-06 22:25 | 18.33156 | -93.77608 | 23711 ft | 389 kts | 110° |
| 2026-05-06 22:25 | 18.32237 | -93.74943 | 23188 ft | 386 kts | 110° |
| 2026-05-06 22:26 | 18.31331 | -93.72315 | 22672 ft | 383 kts | 110° |
| 2026-05-06 22:26 | 18.30426 | -93.69694 | 22164 ft | 379 kts | 110° |
| 2026-05-06 22:26 | 18.29525 | -93.67084 | 21653 ft | 376 kts | 109° |
| 2026-05-06 22:26 | 18.28639 | -93.64520 | 21160 ft | 372 kts | 109° |
| 2026-05-06 22:27 | 18.27768 | -93.61997 | 20678 ft | 369 kts | 109° |
| 2026-05-06 22:27 | 18.26890 | -93.59457 | 20166 ft | 365 kts | 109° |
| 2026-05-06 22:27 | 18.26030 | -93.56969 | 19661 ft | 362 kts | 109° |
| 2026-05-06 22:27 | 18.25170 | -93.54482 | 19132 ft | 359 kts | 109° |
| 2026-05-06 22:28 | 18.24329 | -93.52049 | 18619 ft | 355 kts | 109° |
| 2026-05-06 22:28 | 18.23489 | -93.49620 | 18157 ft | 350 kts | 109° |
| 2026-05-06 22:28 | 18.23143 | -93.48621 | 17955 ft | 348 kts | 109° |
| 2026-05-06 22:28 | 18.22320 | -93.46241 | 17501 ft | 342 kts | 109° |
| 2026-05-06 22:29 | 18.21514 | -93.43915 | 16980 ft | 339 kts | 109° |
| 2026-05-06 22:29 | 18.20714 | -93.41605 | 16510 ft | 336 kts | 109° |
| 2026-05-06 22:29 | 18.19916 | -93.39304 | 16020 ft | 333 kts | 109° |
| 2026-05-06 22:29 | 18.19129 | -93.37038 | 15533 ft | 329 kts | 109° |
| 2026-05-06 22:30 | 18.18353 | -93.34803 | 15088 ft | 327 kts | 109° |
| 2026-05-06 22:30 | 18.17574 | -93.32561 | 14621 ft | 325 kts | 109° |
| 2026-05-06 22:30 | 18.16806 | -93.30350 | 14139 ft | 323 kts | 109° |
| 2026-05-06 22:30 | 18.16042 | -93.28152 | 13665 ft | 321 kts | 110° |
| 2026-05-06 22:31 | 18.15272 | -93.25938 | 13200 ft | 320 kts | 110° |
| 2026-05-06 22:31 | 18.14504 | -93.23730 | 12765 ft | 333 kts | 110° |
| 2026-05-06 22:31 | 18.13694 | -93.21401 | 12228 ft | 339 kts | 110° |
| 2026-05-06 22:31 | 18.12888 | -93.19087 | 11748 ft | 336 kts | 110° |
| 2026-05-06 22:32 | 18.12091 | -93.16794 | 11240 ft | 333 kts | 110° |
| 2026-05-06 22:32 | 18.11305 | -93.14539 | 10762 ft | 330 kts | 110° |
| 2026-05-06 22:32 | 18.10523 | -93.12293 | 10440 ft | 323 kts | 110° |
| 2026-05-06 22:32 | 18.09763 | -93.10109 | 10288 ft | 310 kts | 110° |
| 2026-05-06 22:33 | 18.09042 | -93.08038 | 10183 ft | 297 kts | 110° |
| 2026-05-06 22:33 | 18.08344 | -93.06036 | 10062 ft | 285 kts | 110° |
| 2026-05-06 22:33 | 18.07669 | -93.04100 | 9756 ft | 281 kts | 111° |
| 2026-05-06 22:33 | 18.06997 | -93.02174 | 9341 ft | 281 kts | 111° |
| 2026-05-06 22:34 | 18.06330 | -93.00266 | 8971 ft | 280 kts | 111° |
| 2026-05-06 22:34 | 18.05656 | -92.98334 | 8603 ft | 278 kts | 110° |
| 2026-05-06 22:34 | 18.04994 | -92.96442 | 8237 ft | 277 kts | 110° |
| 2026-05-06 22:34 | 18.04333 | -92.94551 | 7869 ft | 276 kts | 110° |
| 2026-05-06 22:35 | 18.03680 | -92.92680 | 7509 ft | 274 kts | 110° |
| 2026-05-06 22:35 | 18.03023 | -92.90801 | 7158 ft | 272 kts | 110° |
| 2026-05-06 22:35 | 18.02375 | -92.88947 | 6805 ft | 271 kts | 110° |
| 2026-05-06 22:35 | 18.01725 | -92.87093 | 6457 ft | 269 kts | 110° |
| 2026-05-06 22:36 | 18.01076 | -92.85240 | 6104 ft | 267 kts | 109° |
| 2026-05-06 22:36 | 18.00440 | -92.83422 | 5758 ft | 266 kts | 109° |
| 2026-05-06 22:36 | 17.99778 | -92.81615 | 5463 ft | 262 kts | 116° |
| 2026-05-06 22:36 | 17.98616 | -92.80212 | 5453 ft | 262 kts | 147° |
| 2026-05-06 22:37 | 17.96834 | -92.79697 | 5456 ft | 271 kts | 181° |
| 2026-05-06 22:37 | 17.95029 | -92.80312 | 5457 ft | 277 kts | 214° |
| 2026-05-06 22:37 | 17.93826 | -92.81850 | 5458 ft | 279 kts | 248° |
| 2026-05-06 22:37 | 17.93593 | -92.83865 | 5459 ft | 281 kts | 281° |
| 2026-05-06 22:38 | 17.94402 | -92.85709 | 5366 ft | 279 kts | 310° |
| 2026-05-06 22:38 | 17.95752 | -92.87137 | 5204 ft | 274 kts | 319° |
| 2026-05-06 22:38 | 17.97176 | -92.88448 | 4907 ft | 267 kts | 321° |
| 2026-05-06 22:38 | 17.98555 | -92.89702 | 4667 ft | 259 kts | 321° |
| 2026-05-06 22:39 | 17.99896 | -92.90921 | 4526 ft | 247 kts | 321° |
| 2026-05-06 22:39 | 18.01125 | -92.92105 | 4399 ft | 236 kts | 314° |
| 2026-05-06 22:39 | 18.02120 | -92.93429 | 4269 ft | 225 kts | 304° |
| 2026-05-06 22:39 | 18.02845 | -92.94857 | 4142 ft | 215 kts | 293° |
| 2026-05-06 22:40 | 18.03286 | -92.96349 | 3878 ft | 213 kts | 275° |
| 2026-05-06 22:40 | 18.02967 | -92.97810 | 3571 ft | 210 kts | 233° |
| 2026-05-06 22:40 | 18.01875 | -92.98751 | 3317 ft | 201 kts | 201° |
| 2026-05-06 22:40 | 18.00524 | -92.99086 | 3113 ft | 191 kts | 181° |
| 2026-05-06 22:41 | 17.98350 | -92.98110 | 2758 ft | 172 kts | 115° |
| 2026-05-06 22:41 | 17.98210 | -92.96909 | 2536 ft | 167 kts | 72° |
| 2026-05-06 22:41 | 17.98689 | -92.95818 | 2335 ft | 165 kts | 69° |
| 2026-05-06 22:42 | 17.98921 | -92.94644 | 2131 ft | 166 kts | 86° |
| 2026-05-06 22:42 | 17.98992 | -92.93463 | 1979 ft | 153 kts | 85° |
| 2026-05-06 22:42 | 17.99073 | -92.92326 | 1728 ft | 157 kts | 85° |
| 2026-05-06 22:42 | 17.99137 | -92.91217 | 1531 ft | 148 kts | 85° |
| 2026-05-06 22:43 | 17.99198 | -92.90142 | 1349 ft | 145 kts | 85° |
| 2026-05-06 22:43 | 17.99262 | -92.89083 | 1167 ft | 145 kts | 85° |
| 2026-05-06 22:43 | 17.99321 | -92.88038 | 986 ft | 144 kts | 85° |
| 2026-05-06 22:43 | 17.99382 | -92.86988 | 805 ft | 143 kts | 85° |
| 2026-05-06 22:44 | 17.99441 | -92.85942 | 596 ft | 144 kts | 85° |
| 2026-05-06 22:44 | 17.99505 | -92.84906 | 434 ft | 142 kts | 84° |
| 2026-05-06 22:44 | 17.99571 | -92.83864 | 295 ft | 142 kts | 85° |
| 2026-05-06 22:44 | 17.99626 | -92.82806 | 104 ft | 141 kts | 84° |
| 2026-05-06 22:45 | 17.99685 | -92.81852 | 50 ft | 111 kts | 86° |
| 2026-05-06 22:45 | 17.99717 | -92.81300 | 58 ft | 48 kts | 85° |
| 2026-05-06 22:45 | 17.99736 | -92.80958 | 60 ft | 40 kts | 91° |
| 2026-05-06 22:45 | 17.99719 | -92.80766 | 59 ft | 11 kts | 116° |
| 2026-05-06 22:46 | 17.99722 | -92.80698 | 58 ft | 9 kts | 19° |
| 2026-05-06 22:46 | 17.99746 | -92.80741 | 58 ft | 7 kts | 271° |
| 2026-05-06 22:46 | 17.99742 | -92.80816 | 59 ft | 15 kts | 266° |
| 2026-05-06 22:46 | 17.99733 | -92.80966 | 60 ft | 25 kts | 268° |
| 2026-05-06 22:47 | 17.99721 | -92.81195 | 59 ft | 37 kts | 268° |
| 2026-05-06 22:47 | 17.99707 | -92.81464 | 56 ft | 28 kts | 267° |
| 2026-05-06 22:47 | 17.99639 | -92.81613 | 54 ft | 19 kts | 231° |
| 2026-05-06 22:47 | 17.99563 | -92.81734 | 52 ft | 20 kts | 238° |
| 2026-05-06 22:48 | 17.99483 | -92.81836 | 50 ft | 14 kts | 206° |
| 2026-05-06 22:48 | 17.99404 | -92.81855 | 50 ft | 6 kts | 178° |
| 2026-05-06 22:48 | 17.99368 | -92.81853 | 50 ft | 3 kts | 176° |
| 2026-05-06 22:48 | 17.99366 | -92.81853 | 50 ft | 0 kts | 176° |